Time;durP1;ratioP1;P1;durP2;ratioP2;P2;SDS_P1;SDS_P2;PMS_P1;PMS_P2;Temp;Humidity;BMP_temperature;BMP_pressure;BME280_temperature;BME280_humidity;BME280_pressure;Samples;Min_cycle;Max_cycle;Signal;HPM_P1;HPM_P2
2023/10/06 00:01:44;;;;;;;5.97;2.90;;;14.40;99.90;;;;;;5091202;28;20040;-72
2023/10/06 00:04:15;;;;;;;11.82;3.30;;;14.30;99.90;;;;;;5091669;28;20040;-72
2023/10/06 00:06:41;;;;;;;7.63;3.00;;;14.40;99.90;;;;;;5091485;28;20125;-71
2023/10/06 00:09:20;;;;;;;10.85;4.20;;;14.30;99.90;;;;;;5091319;28;20429;-72
2023/10/06 00:11:46;;;;;;;9.23;3.40;;;14.30;99.90;;;;;;5090929;28;20411;-72
2023/10/06 00:14:30;;;;;;;12.88;3.35;;;14.30;99.90;;;;;;5091431;28;20040;-72
2023/10/06 00:16:59;;;;;;;7.63;3.85;;;14.30;99.90;;;;;;5091514;28;20447;-72
2023/10/06 00:19:31;;;;;;;11.30;3.92;;;14.40;99.90;;;;;;5090691;28;20036;-72
2023/10/06 00:22:04;;;;;;;11.63;3.88;;;14.30;99.90;;;;;;5090141;28;20051;-72
2023/10/06 00:24:31;;;;;;;9.65;3.85;;;14.30;99.90;;;;;;5090233;28;20082;-72
2023/10/06 00:26:58;;;;;;;8.50;3.15;;;14.30;99.90;;;;;;5089969;28;20052;-72
2023/10/06 00:29:24;;;;;;;10.25;3.22;;;14.30;99.90;;;;;;5089956;28;20055;-72
2023/10/06 00:31:50;;;;;;;11.18;3.45;;;14.30;99.90;;;;;;5091011;28;20036;-72
2023/10/06 00:34:19;;;;;;;11.38;3.90;;;14.30;99.90;;;;;;5090299;28;20048;-72
2023/10/06 00:36:55;;;;;;;7.05;3.45;;;14.40;99.90;;;;;;5089980;28;20067;-72
2023/10/06 00:39:25;;;;;;;8.48;3.85;;;14.30;99.90;;;;;;5091122;28;20067;-72
2023/10/06 00:42:06;;;;;;;10.05;3.63;;;14.30;99.90;;;;;;5091528;28;20043;-72
2023/10/06 00:44:32;;;;;;;12.55;3.08;;;14.30;99.90;;;;;;5093816;28;20044;-72
2023/10/06 00:46:58;;;;;;;11.23;4.43;;;14.20;99.90;;;;;;5094962;28;20051;-72
2023/10/06 00:49:28;;;;;;;7.78;3.53;;;14.20;99.90;;;;;;5094810;28;20051;-72
2023/10/06 00:51:55;;;;;;;7.75;2.78;;;14.20;99.90;;;;;;5093294;28;20499;-72
2023/10/06 00:54:25;;;;;;;6.43;2.95;;;14.20;99.90;;;;;;5093320;28;20056;-72
2023/10/06 00:56:52;;;;;;;9.52;4.13;;;14.20;99.90;;;;;;5094470;28;20473;-72
2023/10/06 00:59:18;;;;;;;11.88;3.63;;;14.20;99.90;;;;;;5094270;28;20066;-72
2023/10/06 01:01:44;;;;;;;10.23;3.45;;;14.20;99.90;;;;;;5094111;28;20064;-72
2023/10/06 01:04:16;;;;;;;15.57;4.30;;;14.10;99.90;;;;;;5094361;28;20040;-72
2023/10/06 01:06:42;;;;;;;7.28;2.90;;;14.20;99.90;;;;;;5094406;28;20491;-72
2023/10/06 01:09:16;;;;;;;11.77;4.47;;;14.20;99.90;;;;;;5094093;28;20594;-72
2023/10/06 01:11:51;;;;;;;9.57;3.60;;;14.20;99.90;;;;;;5092576;28;20044;-72
2023/10/06 01:14:26;;;;;;;8.13;3.55;;;14.20;99.90;;;;;;5110244;28;20385;-72
2023/10/06 01:17:07;;;;;;;7.03;3.15;;;14.20;99.90;;;;;;5094349;28;20032;-72
2023/10/06 01:19:33;;;;;;;8.13;3.65;;;14.30;99.90;;;;;;5093877;28;20040;-72
2023/10/06 01:22:13;;;;;;;7.47;3.92;;;14.20;99.90;;;;;;5094096;28;20040;-72
2023/10/06 01:24:39;;;;;;;9.38;3.95;;;14.20;99.90;;;;;;5094194;28;20046;-72
2023/10/06 01:27:10;;;;;;;7.13;3.75;;;14.20;99.90;;;;;;5094047;28;20529;-72
2023/10/06 01:29:36;;;;;;;8.38;4.00;;;14.20;99.90;;;;;;5109598;28;20047;-72
2023/10/06 01:32:05;;;;;;;9.57;4.80;;;14.20;99.90;;;;;;5093882;28;20036;-72
2023/10/06 01:34:38;;;;;;;11.23;4.80;;;14.20;99.90;;;;;;5093756;28;20040;-72
2023/10/06 01:37:09;;;;;;;11.82;4.53;;;14.30;99.90;;;;;;5092863;28;20044;-72
2023/10/06 01:39:35;;;;;;;9.27;4.82;;;14.20;99.90;;;;;;5093360;28;20457;-72
2023/10/06 01:42:09;;;;;;;14.32;5.10;;;14.20;99.90;;;;;;5093511;28;20474;-72
2023/10/06 01:44:36;;;;;;;12.50;5.22;;;14.20;99.90;;;;;;5093694;28;20039;-72
2023/10/06 01:47:05;;;;;;;10.23;4.47;;;14.20;99.90;;;;;;5092565;28;20040;-72
2023/10/06 01:49:31;;;;;;;15.52;5.47;;;14.20;99.90;;;;;;5093443;28;20079;-71
2023/10/06 01:51:57;;;;;;;12.38;5.00;;;14.20;99.90;;;;;;5092033;28;20457;-71
2023/10/06 01:54:27;;;;;;;14.75;5.00;;;14.20;99.90;;;;;;5091076;28;20044;-72
2023/10/06 01:56:54;;;;;;;10.13;4.50;;;14.20;99.90;;;;;;5091997;28;20143;-72
2023/10/06 01:59:20;;;;;;;16.60;6.57;;;14.20;99.90;;;;;;5093405;28;20562;-72
2023/10/06 02:01:47;;;;;;;10.65;5.07;;;14.20;99.90;;;;;;5093505;28;20515;-72
2023/10/06 02:04:19;;;;;;;13.32;6.30;;;14.20;99.90;;;;;;5092288;28;20410;-72
2023/10/06 02:06:45;;;;;;;10.55;5.60;;;14.30;99.90;;;;;;5092054;28;20050;-72
2023/10/06 02:09:20;;;;;;;16.30;6.90;;;14.30;99.90;;;;;;5093263;28;20479;-71
2023/10/06 02:11:50;;;;;;;19.90;7.47;;;14.30;99.90;;;;;;5096935;22;20044;-75
2023/10/06 02:14:17;;;;;;;13.82;6.43;;;14.30;99.90;;;;;;5073048;28;20114;-75
2023/10/06 02:16:46;;;;;;;13.90;7.25;;;14.30;99.90;;;;;;5072737;28;20044;-75
2023/10/06 02:19:18;;;;;;;13.75;6.45;;;14.30;99.90;;;;;;5072219;28;20128;-75
2023/10/06 02:21:50;;;;;;;19.90;7.07;;;14.30;99.90;;;;;;5089535;28;20119;-75
2023/10/06 02:24:16;;;;;;;9.48;6.05;;;14.30;99.90;;;;;;5092856;28;20052;-75
2023/10/06 02:26:50;;;;;;;14.35;6.25;;;14.30;99.90;;;;;;5074545;28;20043;-75
2023/10/06 02:29:26;;;;;;;15.80;6.15;;;14.30;99.90;;;;;;5057937;28;20047;-75
2023/10/06 02:32:00;;;;;;;15.40;6.57;;;14.40;99.90;;;;;;5092382;28;20036;-75
2023/10/06 02:34:29;;;;;;;10.70;5.40;;;14.40;99.90;;;;;;5074745;28;20055;-75
2023/10/06 02:37:00;;;;;;;16.33;7.07;;;14.40;99.90;;;;;;5092561;28;20043;-75
2023/10/06 02:39:33;;;;;;;15.40;6.95;;;14.40;99.90;;;;;;5092405;28;20097;-75
2023/10/06 02:42:01;;;;;;;11.90;5.90;;;14.40;99.90;;;;;;5074339;28;20518;-75
2023/10/06 02:44:29;;;;;;;17.70;6.65;;;14.50;99.90;;;;;;5092536;28;20085;-75
2023/10/06 02:46:55;;;;;;;10.60;5.15;;;14.50;99.90;;;;;;5057587;28;20048;-75
2023/10/06 02:49:31;;;;;;;12.27;5.15;;;14.50;99.90;;;;;;5074075;28;20063;-75
2023/10/06 02:52:00;;;;;;;9.75;6.25;;;14.50;99.90;;;;;;5092282;28;20036;-75
2023/10/06 02:54:28;;;;;;;12.55;6.00;;;14.50;99.90;;;;;;5092288;28;20048;-75
2023/10/06 02:56:55;;;;;;;9.90;5.65;;;14.50;99.90;;;;;;5074155;28;20062;-75
2023/10/06 02:59:21;;;;;;;8.70;4.60;;;14.50;99.90;;;;;;5092190;28;20040;-75
2023/10/06 03:01:51;;;;;;;9.68;5.78;;;14.50;99.90;;;;;;5092004;28;20131;-76
2023/10/06 03:04:17;;;;;;;13.23;6.05;;;14.40;99.90;;;;;;5056915;28;20130;-75
2023/10/06 03:06:52;;;;;;;12.05;5.55;;;14.40;99.90;;;;;;5073886;28;20075;-75
2023/10/06 03:09:18;;;;;;;11.43;6.20;;;14.40;99.90;;;;;;5073244;28;20123;-75
2023/10/06 03:11:49;;;;;;;13.55;5.80;;;14.40;99.90;;;;;;5091460;28;20111;-75
2023/10/06 03:14:24;;;;;;;9.68;5.18;;;14.40;99.90;;;;;;5092031;28;20051;-75
2023/10/06 03:16:52;;;;;;;10.73;5.65;;;14.30;99.90;;;;;;5092076;28;20403;-75
2023/10/06 03:19:25;;;;;;;16.10;6.18;;;14.30;99.90;;;;;;5073548;28;20093;-75
2023/10/06 03:21:58;;;;;;;14.63;5.28;;;14.30;99.90;;;;;;5073870;28;20130;-75
2023/10/06 03:24:31;;;;;;;17.05;7.45;;;14.30;99.90;;;;;;5091982;28;20044;-75
2023/10/06 03:26:58;;;;;;;13.65;6.68;;;14.30;99.90;;;;;;5073917;28;20047;-75
2023/10/06 03:29:43;;;;;;;18.65;6.40;;;14.30;99.90;;;;;;5073585;28;20495;-75
2023/10/06 03:32:20;;;;;;;11.57;6.07;;;14.30;99.90;;;;;;5071691;28;20727;-75
2023/10/06 03:34:47;;;;;;;15.05;6.90;;;14.30;99.90;;;;;;5071748;28;20041;-75
2023/10/06 03:37:16;;;;;;;12.65;6.38;;;14.30;99.90;;;;;;5070281;28;20123;-75
2023/10/06 03:39:48;;;;;;;12.02;6.20;;;14.30;99.90;;;;;;5053582;28;20044;-75
2023/10/06 03:42:18;;;;;;;11.20;6.75;;;14.30;99.90;;;;;;5071817;28;20070;-75
2023/10/06 03:44:45;;;;;;;19.92;7.05;;;14.30;99.90;;;;;;5070276;28;20105;-75
2023/10/06 03:47:11;;;;;;;12.60;5.53;;;14.30;99.90;;;;;;5070299;28;20123;-75
2023/10/06 03:49:37;;;;;;;16.05;6.65;;;14.30;99.90;;;;;;5070186;28;20118;-75
2023/10/06 03:52:06;;;;;;;14.88;7.28;;;14.30;99.90;;;;;;5088532;28;20092;-75
2023/10/06 03:54:32;;;;;;;19.55;7.20;;;14.30;99.90;;;;;;5091813;28;20047;-75
2023/10/06 03:56:58;;;;;;;21.25;7.68;;;14.30;99.90;;;;;;5091583;28;20032;-75
2023/10/06 03:59:23;;;;;;;20.63;7.93;;;14.30;99.90;;;;;;5091593;28;20040;-75
2023/10/06 04:01:51;;;;;;;17.35;8.35;;;14.30;99.90;;;;;;5091413;28;20491;-75
2023/10/06 04:04:22;;;;;;;14.27;8.13;;;14.20;99.90;;;;;;5073534;28;20036;-75
2023/10/06 04:06:48;;;;;;;10.52;6.40;;;14.30;99.90;;;;;;5091420;28;20081;-75
2023/10/06 04:09:27;;;;;;;20.67;8.73;;;14.30;99.90;;;;;;5073470;28;20048;-75
2023/10/06 04:11:53;;;;;;;15.68;8.55;;;14.30;99.90;;;;;;5072773;28;20046;-75
2023/10/06 04:14:20;;;;;;;14.95;7.38;;;14.30;99.90;;;;;;5073408;28;20403;-75
2023/10/06 04:16:46;;;;;;;18.95;8.13;;;14.30;99.90;;;;;;5058173;28;20042;-75
2023/10/06 04:19:16;;;;;;;16.13;8.75;;;14.30;99.90;;;;;;5060214;28;20040;-75
2023/10/06 04:21:42;;;;;;;14.13;8.35;;;14.30;99.90;;;;;;5076819;28;20089;-75
2023/10/06 04:24:08;;;;;;;17.45;7.50;;;14.30;99.90;;;;;;5077405;28;20043;-75
2023/10/06 04:26:34;;;;;;;17.45;8.32;;;14.30;99.90;;;;;;5076880;28;20040;-75
2023/10/06 04:28:59;;;;;;;18.00;8.40;;;14.30;99.90;;;;;;5076801;28;20039;-75
2023/10/06 04:31:25;;;;;;;14.15;7.78;;;14.30;99.90;;;;;;5060001;28;20478;-75
2023/10/06 04:33:50;;;;;;;18.98;8.32;;;14.30;99.90;;;;;;5076819;28;20048;-75
2023/10/06 04:36:20;;;;;;;13.85;7.63;;;14.30;99.90;;;;;;5094982;28;20074;-75
2023/10/06 04:38:46;;;;;;;18.40;8.93;;;14.20;99.90;;;;;;5095119;28;20051;-75
2023/10/06 04:41:11;;;;;;;13.68;7.65;;;14.20;99.90;;;;;;5094409;28;20040;-74
2023/10/06 04:43:44;;;;;;;12.80;7.30;;;14.30;99.90;;;;;;5059932;28;20036;-74
2023/10/06 04:46:13;;;;;;;17.17;7.80;;;14.20;99.90;;;;;;5094638;28;20051;-74
2023/10/06 04:48:38;;;;;;;15.88;7.22;;;14.20;99.90;;;;;;5059952;28;20093;-74
2023/10/06 04:51:05;;;;;;;24.15;7.07;;;14.20;99.90;;;;;;5075992;28;20040;-74
2023/10/06 04:53:35;;;;;;;14.98;7.53;;;14.20;99.90;;;;;;5075789;28;20043;-74
2023/10/06 04:56:03;;;;;;;19.30;6.65;;;14.20;99.90;;;;;;5075708;28;20044;-74
2023/10/06 04:58:29;;;;;;;13.15;8.13;;;14.20;99.90;;;;;;5059619;28;20127;-74
2023/10/06 05:00:59;;;;;;;16.92;8.30;;;14.20;99.90;;;;;;5075743;28;20039;-74
2023/10/06 05:03:26;;;;;;;16.25;7.93;;;14.20;99.90;;;;;;5059652;28;20044;-74
2023/10/06 05:05:55;;;;;;;17.73;7.60;;;14.20;99.90;;;;;;5076442;28;20072;-74
2023/10/06 05:08:21;;;;;;;14.82;6.95;;;14.10;99.90;;;;;;5076083;28;20036;-74
2023/10/06 05:10:49;;;;;;;15.85;7.60;;;14.10;99.90;;;;;;5075577;28;20118;-74
2023/10/06 05:13:16;;;;;;;26.15;8.38;;;14.10;99.90;;;;;;5076263;28;20067;-74
2023/10/06 05:15:42;;;;;;;14.88;7.47;;;14.10;99.90;;;;;;5076056;28;20073;-74
2023/10/06 05:18:12;;;;;;;16.20;8.05;;;14.10;99.90;;;;;;5059616;28;20032;-74
2023/10/06 05:20:38;;;;;;;13.88;6.07;;;14.10;99.90;;;;;;5058869;28;20119;-74
2023/10/06 05:23:14;;;;;;;15.52;7.97;;;14.10;99.90;;;;;;5075934;28;20170;-74
2023/10/06 05:25:40;;;;;;;16.75;7.63;;;14.10;99.90;;;;;;5075930;28;20493;-74
2023/10/06 05:28:10;;;;;;;18.55;7.40;;;14.10;99.90;;;;;;5075364;28;20062;-74
2023/10/06 05:30:37;;;;;;;15.23;7.70;;;14.10;99.90;;;;;;5075151;28;20047;-74
2023/10/06 05:33:03;;;;;;;14.80;7.13;;;14.10;99.90;;;;;;5075728;28;20051;-74
2023/10/06 05:35:41;;;;;;;12.25;6.38;;;14.10;99.90;;;;;;5075609;28;20133;-74
2023/10/06 05:38:13;;;;;;;12.10;6.85;;;14.10;99.90;;;;;;5075557;28;20092;-74
2023/10/06 05:40:40;;;;;;;15.90;6.70;;;14.10;99.90;;;;;;5075205;28;20093;-74
2023/10/06 05:43:11;;;;;;;15.48;7.50;;;14.10;99.90;;;;;;5075380;28;20122;-74
2023/10/06 05:45:39;;;;;;;15.75;6.90;;;14.10;99.90;;;;;;5075676;28;20178;-74
2023/10/06 05:48:09;;;;;;;14.13;7.00;;;14.10;99.90;;;;;;5075080;28;20040;-74
2023/10/06 05:50:35;;;;;;;15.27;8.38;;;14.10;99.90;;;;;;5075195;28;20047;-74
2023/10/06 05:53:07;;;;;;;15.43;7.05;;;14.10;99.90;;;;;;5058451;28;20036;-74
2023/10/06 05:55:38;;;;;;;17.10;7.85;;;14.10;99.90;;;;;;5075256;28;20044;-74
2023/10/06 05:58:09;;;;;;;15.32;6.72;;;14.10;99.90;;;;;;5075178;28;20044;-74
2023/10/06 06:00:43;;;;;;;14.90;6.30;;;14.10;99.90;;;;;;5058294;28;20376;-74
2023/10/06 06:03:13;;;;;;;14.00;7.25;;;14.10;99.90;;;;;;5093287;28;20123;-74
2023/10/06 06:05:39;;;;;;;15.63;7.43;;;14.10;99.90;;;;;;5074554;28;20101;-74
2023/10/06 06:08:09;;;;;;;15.05;7.05;;;14.20;99.90;;;;;;5075106;28;20044;-74
2023/10/06 06:10:40;;;;;;;14.60;7.30;;;14.20;99.90;;;;;;5074680;28;20072;-74
2023/10/06 06:13:05;;;;;;;16.92;7.80;;;14.10;99.90;;;;;;5075062;28;20075;-74
2023/10/06 06:15:31;;;;;;;15.23;6.80;;;14.20;99.90;;;;;;5075079;28;20463;-74
2023/10/06 06:17:58;;;;;;;12.73;6.72;;;14.20;99.90;;;;;;5074759;28;20128;-74
2023/10/06 06:20:25;;;;;;;13.98;6.68;;;14.20;99.90;;;;;;5074435;28;20044;-74
2023/10/06 06:23:02;;;;;;;18.48;8.00;;;14.30;99.90;;;;;;5058005;28;20053;-74
2023/10/06 06:25:29;;;;;;;22.52;7.18;;;14.30;99.90;;;;;;5074445;28;20086;-74
2023/10/06 06:27:59;;;;;;;16.65;7.97;;;14.30;99.90;;;;;;5074585;28;20405;-74
2023/10/06 06:30:24;;;;;;;16.50;7.05;;;14.40;99.90;;;;;;5074277;28;20075;-74
2023/10/06 06:32:52;;;;;;;18.40;7.97;;;14.30;99.90;;;;;;5092754;28;20095;-74
2023/10/06 06:35:19;;;;;;;16.30;6.65;;;14.40;99.90;;;;;;5092578;28;20076;-73
2023/10/06 06:38:01;;;;;;;18.30;8.65;;;14.40;99.90;;;;;;5092666;28;20043;-74
2023/10/06 06:40:31;;;;;;;14.57;6.65;;;14.40;99.90;;;;;;5091515;28;20044;-73
2023/10/06 06:42:58;;;;;;;17.85;7.07;;;14.40;99.90;;;;;;5074273;28;20130;-74
2023/10/06 06:45:28;;;;;;;15.73;7.80;;;14.50;99.90;;;;;;5092722;28;20032;-75
2023/10/06 06:47:54;;;;;;;15.05;6.95;;;14.50;99.90;;;;;;5091352;28;20526;-74
2023/10/06 06:50:21;;;;;;;14.52;6.70;;;14.50;99.90;;;;;;5072898;28;20075;-74
2023/10/06 06:52:48;;;;;;;17.45;7.20;;;14.50;99.90;;;;;;5073927;28;20040;-74
2023/10/06 06:55:14;;;;;;;17.52;7.35;;;14.50;99.90;;;;;;5057285;28;20051;-74
2023/10/06 06:57:45;;;;;;;15.68;5.82;;;14.50;99.90;;;;;;5073808;28;20040;-74
2023/10/06 07:00:18;;;;;;;11.70;6.75;;;14.60;99.90;;;;;;5073460;28;20036;-74
2023/10/06 07:02:48;;;;;;;15.40;6.57;;;14.60;99.90;;;;;;5073851;28;20047;-74
2023/10/06 07:05:15;;;;;;;15.23;6.30;;;14.60;99.90;;;;;;5091702;28;20040;-73
2023/10/06 07:07:43;;;;;;;18.38;6.38;;;14.70;99.90;;;;;;5074112;28;20040;-75
2023/10/06 07:10:13;;;;;;;12.55;5.97;;;14.70;99.90;;;;;;5091640;28;20039;-73
2023/10/06 07:12:38;;;;;;;16.27;6.50;;;14.80;99.90;;;;;;5092242;28;20144;-73
2023/10/06 07:15:09;;;;;;;10.77;6.63;;;14.80;99.90;;;;;;5073934;28;20517;-74
2023/10/06 07:17:34;;;;;;;16.33;6.20;;;14.80;99.90;;;;;;5074122;28;20040;-74
2023/10/06 07:20:00;;;;;;;13.60;7.35;;;14.80;99.90;;;;;;5073752;28;20668;-74
2023/10/06 07:22:31;;;;;;;18.00;7.50;;;14.80;99.90;;;;;;5073570;28;20518;-73
2023/10/06 07:24:57;;;;;;;11.75;7.57;;;14.90;99.90;;;;;;5057172;28;20036;-74
2023/10/06 07:27:23;;;;;;;17.05;8.05;;;14.90;99.90;;;;;;5073538;28;20059;-74
2023/10/06 07:29:52;;;;;;;13.05;8.40;;;14.90;99.90;;;;;;5091553;28;20036;-74
2023/10/06 07:32:18;;;;;;;15.18;7.40;;;14.90;99.90;;;;;;5091685;28;20093;-74
2023/10/06 07:34:44;;;;;;;18.25;7.60;;;15.00;99.90;;;;;;5073707;28;20040;-74
2023/10/06 07:37:11;;;;;;;13.65;7.70;;;15.00;99.90;;;;;;5091654;28;20457;-74
2023/10/06 07:39:37;;;;;;;20.42;7.85;;;15.00;99.90;;;;;;5073353;28;20036;-74
2023/10/06 07:42:06;;;;;;;17.58;7.30;;;15.00;99.90;;;;;;5073572;28;20036;-74
2023/10/06 07:44:33;;;;;;;18.38;7.38;;;15.10;99.90;;;;;;5091713;28;20040;-74
2023/10/06 07:47:00;;;;;;;17.92;8.00;;;15.10;99.90;;;;;;5056664;28;20048;-74
2023/10/06 07:49:27;;;;;;;14.45;8.10;;;15.20;99.90;;;;;;5091275;28;20526;-73
2023/10/06 07:51:55;;;;;;;16.95;7.97;;;15.20;99.90;;;;;;5076518;28;20415;-74
2023/10/06 07:54:23;;;;;;;17.77;8.02;;;15.30;99.90;;;;;;5077553;28;20093;-73
2023/10/06 07:56:49;;;;;;;18.83;9.45;;;15.30;99.90;;;;;;5077465;28;20044;-74
2023/10/06 07:59:14;;;;;;;17.23;9.20;;;15.30;99.90;;;;;;5095576;28;20028;-73
2023/10/06 08:01:40;;;;;;;20.48;9.55;;;15.30;99.90;;;;;;5076912;28;20170;-74
2023/10/06 08:04:06;;;;;;;19.33;10.02;;;15.30;99.90;;;;;;5077167;28;20131;-73
2023/10/06 08:06:31;;;;;;;18.63;8.65;;;15.20;99.90;;;;;;5077245;28;20043;-76
2023/10/06 08:08:57;;;;;;;14.88;8.48;;;15.10;99.90;;;;;;5095488;28;20036;-74
2023/10/06 08:11:25;;;;;;;16.92;9.07;;;15.10;99.90;;;;;;5045288;22;20057;-72
2023/10/06 08:13:52;;;;;;;19.50;8.93;;;15.00;99.90;;;;;;4971778;28;20065;-73
2023/10/06 08:16:18;;;;;;;17.20;9.35;;;15.10;99.90;;;;;;4971763;28;20104;-72
2023/10/06 08:18:45;;;;;;;27.45;10.23;;;15.00;99.90;;;;;;4971320;28;20038;-72
2023/10/06 08:21:11;;;;;;;16.25;9.35;;;15.10;99.90;;;;;;4972603;28;20503;-72
2023/10/06 08:23:36;;;;;;;14.57;9.40;;;15.10;99.90;;;;;;4973069;28;20092;-72
2023/10/06 08:26:07;;;;;;;15.77;8.43;;;15.10;99.90;;;;;;4971767;28;20038;-72
2023/10/06 08:28:33;;;;;;;16.25;9.75;;;15.20;99.90;;;;;;4971517;28;20045;-72
2023/10/06 08:31:02;;;;;;;17.05;9.20;;;15.30;99.90;;;;;;4972387;28;20038;-73
2023/10/06 08:33:28;;;;;;;13.82;10.48;;;15.30;99.90;;;;;;4971514;28;20058;-72
2023/10/06 08:35:58;;;;;;;20.02;9.18;;;15.30;99.90;;;;;;4973141;28;20034;-73
2023/10/06 08:38:26;;;;;;;19.50;9.85;;;15.40;99.90;;;;;;4972795;28;20039;-72
2023/10/06 08:41:00;;;;;;;15.93;8.85;;;15.40;99.90;;;;;;4971199;28;20089;-73
2023/10/06 08:43:27;;;;;;;16.83;10.18;;;15.40;99.90;;;;;;4972621;28;20047;-72
2023/10/06 08:45:55;;;;;;;16.65;9.45;;;15.40;99.90;;;;;;4971252;28;20054;-73
2023/10/06 08:48:25;;;;;;;16.67;9.05;;;15.40;99.90;;;;;;4972517;28;20571;-73
2023/10/06 08:50:54;;;;;;;15.52;10.20;;;15.40;99.90;;;;;;4972204;28;20038;-73
2023/10/06 08:53:23;;;;;;;20.90;9.55;;;15.50;99.90;;;;;;4971558;28;20047;-73
2023/10/06 08:55:49;;;;;;;15.77;9.68;;;15.50;99.90;;;;;;4955046;28;20494;-73
2023/10/06 08:58:14;;;;;;;24.38;9.90;;;15.50;99.90;;;;;;4972313;28;20104;-73
2023/10/06 09:00:43;;;;;;;17.23;10.90;;;15.60;99.90;;;;;;4972197;28;20066;-72
2023/10/06 09:03:11;;;;;;;17.52;8.75;;;15.70;99.90;;;;;;4970802;28;20043;-73
2023/10/06 09:05:40;;;;;;;17.30;9.23;;;15.70;99.90;;;;;;4972465;28;20043;-73
2023/10/06 09:08:09;;;;;;;18.42;9.32;;;15.80;99.90;;;;;;4972312;28;20125;-73
2023/10/06 09:10:37;;;;;;;18.52;8.95;;;15.80;99.90;;;;;;4971803;28;20043;-72
2023/10/06 09:13:10;;;;;;;12.57;8.38;;;15.90;99.90;;;;;;4972356;28;20402;-72
2023/10/06 09:15:36;;;;;;;12.85;8.15;;;15.90;99.90;;;;;;4954849;28;20053;-72
2023/10/06 09:18:27;;;;;;;13.93;8.68;;;16.00;99.90;;;;;;4972199;28;20122;-73
2023/10/06 09:20:54;;;;;;;16.65;8.77;;;16.00;99.90;;;;;;4971878;28;20100;-73
2023/10/06 09:23:37;;;;;;;18.70;8.48;;;16.00;99.90;;;;;;4972042;28;20050;-73
2023/10/06 09:26:04;;;;;;;;;;;16.00;99.90;;;;;;4971420;28;20066;-72
2023/10/06 09:28:33;;;;;;;13.40;7.85;;;16.00;99.90;;;;;;4971995;28;19922;-73
2023/10/06 09:31:05;;;;;;;18.83;8.52;;;16.10;99.90;;;;;;4970467;28;20117;-73
2023/10/06 09:33:36;;;;;;;21.92;9.15;;;16.10;99.90;;;;;;4971966;28;20113;-73
2023/10/06 09:36:07;;;;;;;18.45;7.82;;;16.10;99.90;;;;;;4972041;28;20078;-73
2023/10/06 09:38:34;;;;;;;16.20;7.20;;;16.20;99.90;;;;;;4970769;28;20035;-72
2023/10/06 09:40:59;;;;;;;12.70;7.68;;;16.10;99.90;;;;;;4971492;28;20525;-72
2023/10/06 09:43:27;;;;;;;13.65;7.65;;;16.20;99.90;;;;;;4971704;28;20035;-73
2023/10/06 09:45:53;;;;;;;15.70;7.57;;;16.20;99.90;;;;;;4970520;28;20035;-73
2023/10/06 09:48:25;;;;;;;18.10;7.20;;;16.20;99.90;;;;;;4970392;28;20031;-72
2023/10/06 09:50:54;;;;;;;14.15;6.97;;;16.20;99.90;;;;;;4970289;28;20188;-72
2023/10/06 09:53:20;;;;;;;14.38;7.00;;;16.30;99.90;;;;;;4970541;28;20188;-72
2023/10/06 09:55:49;;;;;;;19.52;7.25;;;16.30;99.90;;;;;;4970520;28;20122;-73
2023/10/06 09:58:19;;;;;;;16.10;7.40;;;16.30;99.90;;;;;;4971429;28;20549;-72
2023/10/06 10:00:45;;;;;;;14.35;7.50;;;16.40;99.90;;;;;;4971031;28;20077;-73
2023/10/06 10:03:12;;;;;;;13.40;7.20;;;16.50;99.90;;;;;;4971590;28;20043;-73
2023/10/06 10:05:39;;;;;;;17.45;8.02;;;16.50;99.90;;;;;;4971537;28;20047;-73
2023/10/06 10:08:08;;;;;;;12.00;6.82;;;16.50;99.90;;;;;;4971400;28;20051;-73
2023/10/06 10:10:38;;;;;;;13.85;6.60;;;16.60;99.90;;;;;;4970791;28;20503;-73
2023/10/06 10:13:43;;;;;;;14.98;7.95;;;16.70;99.90;;;;;;4969849;28;20502;-73
2023/10/06 10:16:26;;;;;;;15.18;6.13;;;16.70;99.90;;;;;;4970013;28;20050;-73
2023/10/06 10:19:03;;;;;;;17.67;6.60;;;16.90;99.90;;;;;;4953866;28;20034;-73
2023/10/06 10:21:30;;;;;;;12.15;5.85;;;16.90;99.90;;;;;;4969989;28;20065;-71
2023/10/06 10:24:03;;;;;;;13.35;4.88;;;17.10;99.90;;;;;;4970362;28;20077;-72
2023/10/06 10:26:31;;;;;;;11.77;4.75;;;17.20;99.90;;;;;;4971149;28;20502;-73
2023/10/06 10:29:12;;;;;;;13.90;5.00;;;17.30;99.90;;;;;;4971000;28;20529;-72
2023/10/06 10:31:51;;;;;;;11.43;4.63;;;17.30;99.90;;;;;;4970887;28;20038;-72
2023/10/06 10:34:21;;;;;;;14.82;4.75;;;17.40;99.90;;;;;;4971110;28;20054;-72
2023/10/06 10:36:48;;;;;;;15.90;4.57;;;17.50;99.90;;;;;;4971344;28;20474;-72
2023/10/06 10:39:17;;;;;;;8.52;3.97;;;17.60;99.90;;;;;;4969678;28;20560;-72
2023/10/06 10:41:45;;;;;;;13.43;4.85;;;17.60;99.90;;;;;;4970694;28;20405;-72
2023/10/06 10:44:12;;;;;;;15.15;4.57;;;17.70;99.90;;;;;;4970883;28;20099;-73
2023/10/06 10:46:50;;;;;;;11.05;4.68;;;17.70;99.90;;;;;;4970623;28;20039;-73
2023/10/06 10:49:22;;;;;;;17.48;4.60;;;17.70;99.90;;;;;;4969527;28;20046;-73
2023/10/06 10:51:53;;;;;;;10.63;4.35;;;17.80;99.90;;;;;;4969178;28;20054;-72
2023/10/06 10:54:23;;;;;;;9.82;4.72;;;17.80;99.90;;;;;;4970712;28;20638;-73
2023/10/06 10:56:53;;;;;;;14.57;4.65;;;17.80;99.90;;;;;;4970550;28;20031;-72
2023/10/06 10:59:20;;;;;;;13.85;4.95;;;17.80;99.90;;;;;;4970395;28;20053;-72
2023/10/06 11:01:51;;;;;;;10.68;4.03;;;17.80;99.90;;;;;;4969226;28;20144;-72
2023/10/06 11:04:35;;;;;;;14.50;4.65;;;17.80;99.90;;;;;;4970578;28;20394;-73
2023/10/06 11:07:12;;;;;;;11.30;4.60;;;17.90;99.90;;;;;;4953286;28;20043;-72
2023/10/06 11:09:47;;;;;;;16.75;4.68;;;17.90;99.90;;;;;;4968892;28;20078;-73
2023/10/06 11:12:16;;;;;;;13.95;4.50;;;18.00;99.90;;;;;;4970176;28;20043;-72
2023/10/06 11:14:42;;;;;;;11.85;5.10;;;18.00;99.90;;;;;;4953295;28;20104;-72
2023/10/06 11:17:07;;;;;;;17.92;4.88;;;18.00;99.90;;;;;;4969449;28;20134;-72
2023/10/06 11:19:34;;;;;;;11.32;4.50;;;18.00;99.90;;;;;;4968861;28;20045;-73
2023/10/06 11:22:13;;;;;;;10.30;4.00;;;18.00;99.90;;;;;;4970173;28;20043;-73
2023/10/06 11:24:39;;;;;;;9.70;4.15;;;18.00;99.90;;;;;;4970441;28;20041;-72
2023/10/06 11:27:22;;;;;;;16.17;5.07;;;18.10;99.90;;;;;;4970063;28;20043;-72
2023/10/06 11:29:59;;;;;;;12.70;4.20;;;18.10;99.90;;;;;;4970139;28;20477;-72
2023/10/06 11:32:28;;;;;;;11.50;4.30;;;18.20;99.90;;;;;;4968785;28;20302;-73
2023/10/06 11:34:54;;;;;;;11.93;4.18;;;18.20;99.90;;;;;;4970268;28;20114;-73
2023/10/06 11:37:24;;;;;;;10.65;4.05;;;18.20;99.90;;;;;;4970292;28;20099;-73
2023/10/06 11:39:53;;;;;;;12.05;3.95;;;18.30;99.90;;;;;;4968629;28;20095;-73
2023/10/06 11:42:25;;;;;;;10.57;3.88;;;18.30;99.90;;;;;;4968721;28;20050;-73
2023/10/06 11:44:55;;;;;;;11.00;4.10;;;18.40;99.90;;;;;;4968783;28;20042;-73
2023/10/06 11:47:26;;;;;;;9.27;4.25;;;18.50;99.90;;;;;;4968782;28;20104;-73
2023/10/06 11:49:55;;;;;;;9.43;3.42;;;18.50;99.90;;;;;;4968447;28;20074;-72
2023/10/06 11:52:21;;;;;;;13.93;4.18;;;18.50;99.90;;;;;;4952653;28;20043;-72
2023/10/06 11:54:47;;;;;;;16.65;4.47;;;18.50;99.90;;;;;;4968720;28;20655;-73
2023/10/06 11:57:13;;;;;;;14.05;3.85;;;18.50;99.90;;;;;;4968577;28;20050;-73
2023/10/06 11:59:51;;;;;;;9.52;3.38;;;18.50;99.90;;;;;;4969556;28;20054;-73
2023/10/06 12:02:17;;;;;;;12.55;4.18;;;18.50;99.90;;;;;;4968509;28;20038;-73
2023/10/06 12:04:44;;;;;;;11.63;4.55;;;18.50;99.90;;;;;;4969883;28;20039;-72
2023/10/06 12:07:26;;;;;;;14.23;4.72;;;18.60;99.90;;;;;;4968407;28;20059;-72
2023/10/06 12:10:01;;;;;;;7.47;3.10;;;18.60;99.90;;;;;;4968174;28;20097;-72
2023/10/06 12:12:27;;;;;;;11.05;4.10;;;18.60;99.90;;;;;;4968247;28;20050;-72
2023/10/06 12:14:55;;;;;;;16.23;5.03;;;18.60;99.90;;;;;;4968403;28;20047;-73
2023/10/06 12:17:22;;;;;;;10.07;4.13;;;18.60;99.90;;;;;;4969627;28;20050;-73
2023/10/06 12:19:47;;;;;;;14.27;3.55;;;18.60;99.90;;;;;;4968330;28;20089;-73
2023/10/06 12:22:13;;;;;;;9.98;3.53;;;18.60;99.90;;;;;;4969560;28;20070;-73
2023/10/06 12:24:39;;;;;;;6.35;2.85;;;18.50;99.90;;;;;;4968237;28;20047;-73
2023/10/06 12:27:05;;;;;;;10.05;3.33;;;18.60;99.90;;;;;;4969681;28;20125;-73
2023/10/06 12:29:31;;;;;;;15.57;4.22;;;18.60;99.90;;;;;;4969280;28;20126;-72
2023/10/06 12:31:58;;;;;;;17.48;4.60;;;18.60;99.90;;;;;;4967956;28;20039;-72
2023/10/06 12:34:27;;;;;;;10.43;3.60;;;18.70;99.90;;;;;;4969335;28;20125;-72
2023/10/06 12:36:53;;;;;;;11.45;4.05;;;18.70;99.90;;;;;;4969387;28;20038;-73
2023/10/06 12:39:34;;;;;;;13.77;4.10;;;18.80;99.90;;;;;;4972451;28;20035;-73
2023/10/06 12:42:00;;;;;;;10.65;3.53;;;18.80;99.90;;;;;;4972646;28;20039;-73
2023/10/06 12:44:27;;;;;;;10.70;4.38;;;18.80;99.90;;;;;;4972690;28;20089;-72
2023/10/06 12:47:03;;;;;;;13.80;5.38;;;18.80;99.90;;;;;;4972642;28;20100;-73
2023/10/06 12:49:30;;;;;;;15.57;4.55;;;18.70;99.90;;;;;;4972435;28;20043;-73